createdAt,value
2023-03-19T00:02:26.378Z,7.87
2023-03-19T00:04:54.205Z,7.60
2023-03-19T00:07:22.088Z,8.73
2023-03-19T00:09:49.930Z,10.33
2023-03-19T00:12:19.094Z,4.70
2023-03-19T00:14:46.901Z,4.40
2023-03-19T00:17:14.788Z,6.23
2023-03-19T00:19:42.581Z,6.80
2023-03-19T00:22:10.351Z,6.50
2023-03-19T00:24:38.242Z,8.17
2023-03-19T00:27:06.688Z,5.73
2023-03-19T00:29:36.300Z,4.83
2023-03-19T00:32:04.238Z,6.50
2023-03-19T00:34:32.013Z,7.83
2023-03-19T00:36:59.893Z,5.27
2023-03-19T00:39:27.936Z,7.43
2023-03-19T00:41:55.809Z,7.43
2023-03-19T00:44:23.623Z,5.20
2023-03-19T00:46:52.811Z,4.80
2023-03-19T00:49:20.856Z,5.60
2023-03-19T00:51:48.816Z,5.83
2023-03-19T00:54:16.892Z,4.90
2023-03-19T00:56:45.036Z,4.27
2023-03-19T00:59:12.963Z,7.77
2023-03-19T01:01:41.027Z,5.20
2023-03-19T01:04:11.172Z,6.40
2023-03-19T01:06:39.148Z,6.57
2023-03-19T01:09:07.303Z,5.77
2023-03-19T01:11:36.861Z,6.40
2023-03-19T01:14:04.948Z,5.23
2023-03-19T01:16:34.325Z,6.47
2023-03-19T01:19:02.180Z,5.50
2023-03-19T01:21:31.548Z,4.97
2023-03-19T01:23:59.923Z,5.87
2023-03-19T01:26:29.325Z,4.27
2023-03-19T01:29:05.454Z,5.57
2023-03-19T01:31:33.319Z,7.13
2023-03-19T01:34:23.344Z,5.93
2023-03-19T01:36:56.713Z,3.43
2023-03-19T01:39:32.760Z,6.53
2023-03-19T01:42:03.385Z,3.73
2023-03-19T01:45:03.720Z,8.10
2023-03-19T01:47:45.434Z,6.60
2023-03-19T01:50:25.123Z,5.57
2023-03-19T01:53:07.619Z,6.10
2023-03-19T01:55:59.286Z,7.20
2023-03-19T01:58:50.704Z,7.40
2023-03-19T02:01:37.757Z,4.20
2023-03-19T02:04:07.297Z,6.53
2023-03-19T02:06:37.740Z,7.57
2023-03-19T02:09:07.379Z,4.30
2023-03-19T02:11:36.943Z,4.87
2023-03-19T02:14:05.022Z,6.93
2023-03-19T02:16:33.264Z,7.33
2023-03-19T02:19:01.487Z,4.67
2023-03-19T02:21:29.992Z,7.00
2023-03-19T02:24:04.241Z,4.53
2023-03-19T02:26:51.568Z,9.60
2023-03-19T02:29:19.711Z,3.87
2023-03-19T02:31:48.414Z,5.53
2023-03-19T02:34:38.485Z,3.70
2023-03-19T02:37:13.510Z,3.30
2023-03-19T02:39:50.448Z,4.20
2023-03-19T02:42:22.538Z,5.53
2023-03-19T02:44:50.569Z,4.63
2023-03-19T02:47:18.802Z,3.70
2023-03-19T02:49:46.653Z,4.83
2023-03-19T02:52:16.810Z,4.27
2023-03-19T02:54:44.635Z,5.07
2023-03-19T02:57:12.471Z,5.07
2023-03-19T02:59:41.623Z,5.00
2023-03-19T03:02:10.170Z,5.23
2023-03-19T03:04:38.308Z,5.83
2023-03-19T03:07:07.422Z,4.20
2023-03-19T03:09:35.601Z,5.50
2023-03-19T03:12:03.928Z,4.80
2023-03-19T03:14:31.948Z,3.97
2023-03-19T03:17:01.078Z,6.87
2023-03-19T03:19:28.888Z,9.60
2023-03-19T03:21:56.758Z,4.07
2023-03-19T03:24:24.581Z,4.80
2023-03-19T03:26:52.438Z,4.27
2023-03-19T03:29:21.818Z,6.07
2023-03-19T03:31:49.715Z,5.07
2023-03-19T03:34:19.419Z,4.87
2023-03-19T03:36:47.838Z,5.00
2023-03-19T03:39:16.106Z,4.00
2023-03-19T03:41:44.118Z,6.23
2023-03-19T03:44:11.966Z,4.60
2023-03-19T03:46:43.353Z,6.57
2023-03-19T03:49:11.358Z,5.90
2023-03-19T03:51:42.403Z,5.70
2023-03-19T03:54:10.259Z,5.70
2023-03-19T03:56:38.050Z,5.03
2023-03-19T03:59:05.958Z,5.97
2023-03-19T04:01:33.952Z,5.90
2023-03-19T04:04:01.958Z,6.03
2023-03-19T04:06:30.501Z,5.40
2023-03-19T04:09:22.513Z,6.53
2023-03-19T04:11:51.584Z,5.67
2023-03-19T04:14:19.817Z,5.70
2023-03-19T04:16:48.366Z,7.23
2023-03-19T04:19:16.269Z,7.23
2023-03-19T04:21:44.863Z,5.83
2023-03-19T04:24:12.759Z,9.27
2023-03-19T04:26:42.228Z,6.27
2023-03-19T04:29:10.043Z,7.90
2023-03-19T04:31:38.565Z,5.93
2023-03-19T04:34:07.143Z,6.00
2023-03-19T04:36:35.034Z,5.07
2023-03-19T04:39:02.943Z,7.53
2023-03-19T04:41:30.852Z,6.23
2023-03-19T04:44:13.585Z,6.43
2023-03-19T04:46:42.318Z,7.10
2023-03-19T04:49:10.284Z,5.33
2023-03-19T04:51:38.314Z,5.50
2023-03-19T04:54:07.421Z,5.83
2023-03-19T04:56:35.257Z,7.23
2023-03-19T04:59:03.074Z,5.07
2023-03-19T05:01:32.968Z,8.57
2023-03-19T05:04:04.699Z,5.23
2023-03-19T05:06:35.421Z,5.90
2023-03-19T05:09:03.295Z,4.13
2023-03-19T05:11:31.167Z,5.30
2023-03-19T05:14:05.622Z,5.67
2023-03-19T05:16:47.082Z,8.97
2023-03-19T05:19:16.611Z,5.80
2023-03-19T05:21:44.497Z,6.23
2023-03-19T05:24:12.816Z,7.30
2023-03-19T05:26:40.969Z,7.70
2023-03-19T05:29:24.158Z,7.93
2023-03-19T05:32:17.273Z,5.77
2023-03-19T05:34:45.775Z,5.40
2023-03-19T05:37:13.850Z,5.83
2023-03-19T05:39:42.926Z,7.83
2023-03-19T05:42:12.274Z,5.30
2023-03-19T05:44:40.127Z,6.83
2023-03-19T05:47:39.196Z,5.93
2023-03-19T05:50:07.608Z,9.50
2023-03-19T05:52:35.700Z,8.37
2023-03-19T05:55:04.653Z,8.03
2023-03-19T05:57:53.222Z,9.83
2023-03-19T06:00:25.533Z,7.83
2023-03-19T06:02:55.036Z,7.10
2023-03-19T06:05:55.359Z,7.43
2023-03-19T06:08:43.890Z,7.97
2023-03-19T06:11:31.982Z,7.60
2023-03-19T06:14:22.275Z,11.77
2023-03-19T06:17:07.011Z,7.60
2023-03-19T06:19:36.320Z,7.87
2023-03-19T06:22:04.482Z,7.37
2023-03-19T06:24:32.341Z,6.83
2023-03-19T06:27:00.889Z,8.07
2023-03-19T06:29:28.788Z,11.50
2023-03-19T06:32:03.010Z,6.60
2023-03-19T06:34:51.804Z,10.00
2023-03-19T06:37:20.243Z,8.53
2023-03-19T06:39:48.904Z,10.03
2023-03-19T06:42:17.106Z,7.00
2023-03-19T06:44:45.001Z,7.33
2023-03-19T06:47:12.986Z,7.40
2023-03-19T06:49:42.409Z,10.20
2023-03-19T06:52:11.599Z,7.07
2023-03-19T06:54:39.390Z,8.17
2023-03-19T06:57:07.278Z,7.10
2023-03-19T06:59:35.166Z,7.07
2023-03-19T07:02:03.217Z,6.70
2023-03-19T07:04:31.219Z,6.47
2023-03-19T07:06:59.078Z,7.17
2023-03-19T07:09:28.252Z,8.27
2023-03-19T07:11:56.022Z,6.90
2023-03-19T07:14:24.620Z,8.93
2023-03-19T07:16:52.611Z,7.37
2023-03-19T07:19:20.651Z,6.43
2023-03-19T07:21:48.475Z,7.27
2023-03-19T07:24:16.444Z,6.27
2023-03-19T07:26:46.412Z,7.37
2023-03-19T07:29:14.699Z,7.23
2023-03-19T07:31:42.504Z,5.90
2023-03-19T07:34:10.385Z,9.67
2023-03-19T07:36:38.206Z,5.30
2023-03-19T07:39:06.029Z,5.20
2023-03-19T07:41:33.865Z,5.10
2023-03-19T07:44:03.188Z,4.97
2023-03-19T07:46:31.756Z,4.77
2023-03-19T07:48:59.544Z,4.80
2023-03-19T07:51:27.524Z,6.43
2023-03-19T07:53:55.482Z,5.33
2023-03-19T07:56:23.309Z,4.30
2023-03-19T07:58:51.694Z,4.77
2023-03-19T08:01:21.157Z,4.37
2023-03-19T08:03:49.417Z,4.20
2023-03-19T08:06:17.287Z,4.70
2023-03-19T08:08:45.063Z,5.13
2023-03-19T08:11:12.846Z,5.33
2023-03-19T08:13:40.592Z,5.50
2023-03-19T08:16:08.557Z,3.93
2023-03-19T08:18:37.983Z,4.70
2023-03-19T08:21:06.773Z,6.50
2023-03-19T08:23:35.319Z,7.20
2023-03-19T08:26:03.192Z,5.67
2023-03-19T08:28:31.118Z,5.10
2023-03-19T08:30:58.990Z,6.27
2023-03-19T08:33:26.928Z,6.93
2023-03-19T08:36:06.160Z,5.77
2023-03-19T08:38:34.213Z,4.20
2023-03-19T08:41:04.124Z,4.30
2023-03-19T08:43:33.351Z,4.30
2023-03-19T08:46:01.314Z,6.03
2023-03-19T08:48:29.458Z,5.97
2023-03-19T08:51:00.715Z,5.17
2023-03-19T08:53:28.559Z,5.83
2023-03-19T08:55:58.043Z,4.70
2023-03-19T08:58:26.580Z,6.40
2023-03-19T09:00:54.726Z,5.47
2023-03-19T09:03:22.692Z,4.53
2023-03-19T09:05:50.484Z,4.03
2023-03-19T09:08:19.710Z,4.37
2023-03-19T09:10:48.411Z,3.80
2023-03-19T09:13:17.349Z,4.03
2023-03-19T09:15:45.253Z,5.93
2023-03-19T09:18:13.021Z,5.67
2023-03-19T09:20:40.987Z,6.73
2023-03-19T09:23:08.862Z,4.30
2023-03-19T09:25:38.032Z,4.23
2023-03-19T09:28:06.052Z,4.00
2023-03-19T09:30:33.817Z,6.07
2023-03-19T09:33:01.789Z,4.30
2023-03-19T09:35:31.428Z,4.03
2023-03-19T09:37:59.427Z,4.97
2023-03-19T09:40:30.933Z,4.60
2023-03-19T09:43:18.186Z,4.57
2023-03-19T09:45:47.600Z,5.83
2023-03-19T09:48:21.900Z,4.40
2023-03-19T09:50:51.085Z,6.03
2023-03-19T09:53:25.582Z,5.03
2023-03-19T09:55:54.363Z,4.50
2023-03-19T09:58:29.124Z,5.77
2023-03-19T10:00:58.646Z,4.77
2023-03-19T10:03:40.463Z,5.57
2023-03-19T10:06:22.246Z,6.10
2023-03-19T10:09:13.137Z,5.57
2023-03-19T10:11:52.873Z,4.27
2023-03-19T10:14:48.753Z,5.60
2023-03-19T10:17:20.570Z,5.10
2023-03-19T10:19:52.547Z,5.23
2023-03-19T10:22:24.231Z,6.10
2023-03-19T10:24:55.210Z,6.57
2023-03-19T10:27:24.702Z,5.13
2023-03-19T10:29:54.055Z,6.63
2023-03-19T10:32:34.622Z,6.40
2023-03-19T10:35:08.963Z,5.70
2023-03-19T10:37:37.592Z,5.73
2023-03-19T10:40:18.666Z,5.30
2023-03-19T10:43:02.074Z,5.80
2023-03-19T10:45:33.526Z,4.63
2023-03-19T10:48:03.646Z,4.37
2023-03-19T10:50:36.183Z,4.77
2023-03-19T10:53:08.361Z,4.47
2023-03-19T10:55:36.921Z,3.90
2023-03-19T10:58:07.024Z,5.20
2023-03-19T11:00:36.503Z,5.37
2023-03-19T11:03:05.611Z,4.20
2023-03-19T11:05:35.328Z,4.17
2023-03-19T11:08:05.620Z,3.67
2023-03-19T11:10:36.117Z,5.30
2023-03-19T11:13:07.409Z,3.70
2023-03-19T11:15:38.763Z,6.93
2023-03-19T11:18:20.147Z,4.40
2023-03-19T11:20:55.076Z,4.30
2023-03-19T11:23:22.938Z,5.80
2023-03-19T11:25:53.356Z,4.33
2023-03-19T11:28:25.972Z,3.77
2023-03-19T11:31:03.654Z,5.30
2023-03-19T11:33:54.948Z,5.40
2023-03-19T11:36:27.530Z,5.47
2023-03-19T11:39:18.051Z,3.90
2023-03-19T11:42:00.011Z,4.20
2023-03-19T11:44:35.005Z,4.07
2023-03-19T11:47:24.746Z,6.10
2023-03-19T11:50:04.877Z,4.70
2023-03-19T11:52:42.421Z,4.53
2023-03-19T11:55:21.403Z,4.13
2023-03-19T11:58:16.782Z,3.93
2023-03-19T12:00:48.252Z,4.93
2023-03-19T12:03:56.106Z,5.67
2023-03-19T12:06:34.979Z,5.00
2023-03-19T12:09:05.631Z,3.73
2023-03-19T12:11:42.838Z,4.67
2023-03-19T12:14:26.651Z,4.67
2023-03-19T12:17:22.930Z,3.63
2023-03-19T12:20:18.536Z,5.27
2023-03-19T12:23:00.729Z,3.57
2023-03-19T12:25:44.682Z,3.33
2023-03-19T12:28:19.449Z,3.53
2023-03-19T12:30:57.236Z,4.73
2023-03-19T12:33:37.669Z,3.53
2023-03-19T12:36:13.618Z,4.17
2023-03-19T12:38:46.036Z,3.53
2023-03-19T12:41:19.990Z,2.80
2023-03-19T12:43:56.348Z,3.20
2023-03-19T12:46:34.975Z,3.17
2023-03-19T12:49:08.862Z,3.60
2023-03-19T12:51:42.009Z,3.97
2023-03-19T12:54:15.915Z,3.77
2023-03-19T12:56:50.095Z,5.07
2023-03-19T12:59:28.017Z,3.60
2023-03-19T13:02:04.523Z,3.30
2023-03-19T13:04:38.802Z,4.93
2023-03-19T13:07:14.691Z,6.70
2023-03-19T13:09:49.016Z,5.30
2023-03-19T13:12:22.672Z,3.10
2023-03-19T13:14:58.113Z,7.57
2023-03-19T13:17:31.375Z,7.97
2023-03-19T13:20:15.246Z,5.93
2023-03-19T13:22:48.635Z,4.37
2023-03-19T13:25:19.164Z,4.03
2023-03-19T13:27:55.071Z,3.53
2023-03-19T13:30:26.082Z,5.00
2023-03-19T13:33:04.669Z,3.30
2023-03-19T13:35:38.845Z,5.70
2023-03-19T13:38:18.614Z,3.80
2023-03-19T13:40:48.509Z,3.43
2023-03-19T13:43:38.637Z,4.37
2023-03-19T13:46:30.284Z,4.20
2023-03-19T13:49:10.743Z,3.50
2023-03-19T13:51:38.622Z,3.33
2023-03-19T13:54:17.883Z,5.10
2023-03-19T13:57:08.716Z,4.27
2023-03-19T13:59:39.587Z,2.97
2023-03-19T14:02:40.569Z,4.63
2023-03-19T14:05:17.878Z,4.43
2023-03-19T14:07:51.273Z,3.33
2023-03-19T14:10:25.800Z,3.63
2023-03-19T14:13:03.647Z,6.60
2023-03-19T14:15:32.114Z,3.37
2023-03-19T14:18:02.461Z,5.57
2023-03-19T14:20:40.478Z,5.37
2023-03-19T14:23:36.140Z,4.27
2023-03-19T14:26:18.264Z,7.40
2023-03-19T14:29:06.035Z,4.80
2023-03-19T14:31:43.755Z,4.67
2023-03-19T14:34:33.987Z,4.57
2023-03-19T14:37:04.728Z,4.10
2023-03-19T14:39:35.688Z,3.40
2023-03-19T14:42:08.386Z,4.47
2023-03-19T14:45:00.619Z,3.40
2023-03-19T14:47:46.340Z,3.67
2023-03-19T14:50:32.272Z,3.03
2023-03-19T14:53:05.717Z,8.60
2023-03-19T14:55:36.213Z,3.33
2023-03-19T14:58:06.565Z,3.33
2023-03-19T15:00:46.814Z,3.80
2023-03-19T15:03:22.227Z,2.60
2023-03-19T15:05:52.483Z,6.37
2023-03-19T15:08:24.217Z,3.17
2023-03-19T15:11:07.140Z,3.63
2023-03-19T15:13:53.877Z,5.90
2023-03-19T15:16:32.713Z,4.43
2023-03-19T15:19:01.312Z,3.60
2023-03-19T15:21:31.153Z,4.43
2023-03-19T15:23:59.301Z,4.23
2023-03-19T15:26:32.138Z,4.07
2023-03-19T15:29:04.186Z,4.13
2023-03-19T15:31:52.636Z,4.57
2023-03-19T15:34:27.825Z,5.00
2023-03-19T15:37:00.626Z,4.30
2023-03-19T15:39:35.267Z,3.27
2023-03-19T15:42:05.060Z,3.00
2023-03-19T15:44:38.410Z,3.83
2023-03-19T15:47:11.697Z,3.27
2023-03-19T15:49:43.831Z,4.40
2023-03-19T15:52:15.464Z,3.43
2023-03-19T15:54:43.894Z,4.23
2023-03-19T15:57:15.170Z,3.43
2023-03-19T15:59:45.253Z,3.17
2023-03-19T16:02:19.511Z,4.67
2023-03-19T16:05:14.136Z,2.57
2023-03-19T16:07:43.245Z,2.40
2023-03-19T16:10:32.916Z,4.67
2023-03-19T16:13:04.078Z,3.63
2023-03-19T16:15:38.821Z,4.10
2023-03-19T16:18:29.868Z,4.03
2023-03-19T16:21:09.230Z,3.20
2023-03-19T16:23:39.715Z,4.37
2023-03-19T16:26:21.577Z,2.90
2023-03-19T16:28:57.978Z,3.87
2023-03-19T16:31:31.902Z,3.77
2023-03-19T16:34:24.447Z,4.37
2023-03-19T16:36:52.477Z,5.67
2023-03-19T16:39:35.229Z,6.33
2023-03-19T16:42:31.553Z,4.93
2023-03-19T16:45:04.008Z,5.00
2023-03-19T16:47:31.917Z,6.00
2023-03-19T16:50:01.133Z,3.07
2023-03-19T16:52:28.952Z,5.17
2023-03-19T16:54:59.243Z,5.63
2023-03-19T16:57:28.685Z,3.73
2023-03-19T16:59:56.666Z,5.27
2023-03-19T17:02:24.790Z,4.80
2023-03-19T17:04:52.629Z,3.87
2023-03-19T17:07:21.861Z,6.53
2023-03-19T17:09:49.761Z,5.87
2023-03-19T17:12:18.869Z,5.77
2023-03-19T17:14:51.597Z,5.80
2023-03-19T17:17:21.955Z,6.33
2023-03-19T17:19:51.430Z,3.53
2023-03-19T17:22:19.311Z,4.23
2023-03-19T17:24:48.801Z,6.90
2023-03-19T17:27:16.718Z,8.77
2023-03-19T17:29:44.497Z,3.87
2023-03-19T17:32:20.190Z,4.57
2023-03-19T17:34:48.029Z,5.60
2023-03-19T17:37:16.060Z,4.60
2023-03-19T17:39:45.808Z,4.63
2023-03-19T17:42:20.302Z,5.67
2023-03-19T17:44:48.299Z,3.70
2023-03-19T17:47:17.756Z,8.80
2023-03-19T17:49:46.814Z,3.63
2023-03-19T17:52:16.786Z,7.97
2023-03-19T17:54:44.828Z,6.20
2023-03-19T17:57:14.583Z,3.43
2023-03-19T17:59:43.925Z,5.07
2023-03-19T18:02:25.053Z,7.87
2023-03-19T18:04:53.041Z,7.87
2023-03-19T18:07:20.882Z,6.47
2023-03-19T18:09:48.947Z,7.33
2023-03-19T18:12:16.858Z,12.27
2023-03-19T18:14:46.038Z,9.53
2023-03-19T18:17:17.216Z,6.63
2023-03-19T18:19:47.628Z,9.40
2023-03-19T18:22:17.894Z,12.27
2023-03-19T18:24:46.165Z,12.47
2023-03-19T18:27:14.624Z,8.40
2023-03-19T18:29:42.446Z,9.87
2023-03-19T18:32:17.346Z,8.03
2023-03-19T18:34:45.343Z,7.90
2023-03-19T18:37:17.146Z,8.20
2023-03-19T18:39:44.999Z,8.30
2023-03-19T18:42:13.836Z,8.17
2023-03-19T18:44:41.811Z,10.53
2023-03-19T18:47:16.418Z,11.93
2023-03-19T18:49:44.690Z,8.00
2023-03-19T18:52:17.897Z,7.30
2023-03-19T18:54:47.018Z,8.47
2023-03-19T18:57:16.245Z,13.17
2023-03-19T18:59:44.200Z,6.20
2023-03-19T19:02:27.103Z,9.07
2023-03-19T19:04:54.997Z,7.57
2023-03-19T19:07:22.895Z,13.33
2023-03-19T19:09:50.857Z,13.30
2023-03-19T19:12:19.086Z,8.83
2023-03-19T19:14:47.606Z,7.77
2023-03-19T19:17:17.476Z,8.50
2023-03-19T19:19:47.045Z,8.47
2023-03-19T19:22:16.429Z,13.63
2023-03-19T19:24:44.590Z,10.57
2023-03-19T19:27:17.335Z,6.60
2023-03-19T19:29:45.422Z,9.17
2023-03-19T19:32:20.319Z,6.80
2023-03-19T19:34:49.552Z,7.70
2023-03-19T19:37:18.765Z,6.93
2023-03-19T19:39:46.795Z,7.97
2023-03-19T19:42:16.827Z,6.77
2023-03-19T19:44:50.799Z,7.20
2023-03-19T19:47:19.132Z,6.23
2023-03-19T19:49:47.196Z,7.27
2023-03-19T19:52:18.209Z,6.83
2023-03-19T19:54:47.180Z,5.37
2023-03-19T19:57:19.566Z,5.83
2023-03-19T19:59:47.479Z,5.93
2023-03-19T20:02:23.486Z,6.37
2023-03-19T20:04:51.467Z,7.03
2023-03-19T20:07:20.681Z,6.50
2023-03-19T20:09:48.979Z,7.03
2023-03-19T20:12:21.950Z,6.80
2023-03-19T20:14:50.698Z,7.90
2023-03-19T20:17:20.846Z,6.57
2023-03-19T20:19:48.701Z,8.57
2023-03-19T20:22:16.542Z,7.40
2023-03-19T20:24:50.268Z,7.10
2023-03-19T20:27:22.257Z,5.67
2023-03-19T20:29:50.931Z,6.50
2023-03-19T20:32:28.116Z,6.07
2023-03-19T20:34:55.978Z,6.17
2023-03-19T20:37:23.983Z,5.97
2023-03-19T20:39:53.182Z,5.50
2023-03-19T20:42:21.230Z,5.77
2023-03-19T20:44:49.607Z,5.60
2023-03-19T20:47:20.134Z,5.60
2023-03-19T20:49:48.416Z,5.93
2023-03-19T20:52:16.566Z,8.37
2023-03-19T20:54:44.812Z,6.77
2023-03-19T20:57:16.726Z,8.70
2023-03-19T20:59:46.881Z,8.03
2023-03-19T21:02:20.374Z,5.97
2023-03-19T21:04:48.705Z,6.30
2023-03-19T21:07:28.773Z,5.63
2023-03-19T21:09:57.105Z,5.93
2023-03-19T21:12:30.247Z,7.67
2023-03-19T21:14:58.746Z,8.00
2023-03-19T21:17:27.375Z,8.00
2023-03-19T21:19:55.173Z,8.70
2023-03-19T21:22:27.126Z,8.47
2023-03-19T21:25:04.387Z,7.97
2023-03-19T21:27:37.624Z,8.27
2023-03-19T21:30:07.386Z,9.27
2023-03-19T21:32:35.546Z,7.63
2023-03-19T21:35:03.421Z,11.00
2023-03-19T21:37:31.837Z,8.30
2023-03-19T21:39:59.666Z,10.10
2023-03-19T21:42:28.087Z,8.40
2023-03-19T21:45:00.128Z,8.83
2023-03-19T21:47:28.006Z,11.87
2023-03-19T21:49:56.465Z,11.77
2023-03-19T21:52:24.258Z,9.37
2023-03-19T21:54:52.350Z,8.77
2023-03-19T21:57:20.136Z,9.17
2023-03-19T21:59:48.603Z,8.80
2023-03-19T22:02:39.124Z,8.60
2023-03-19T22:05:16.571Z,9.67
2023-03-19T22:07:44.454Z,9.40
2023-03-19T22:10:12.729Z,6.93
2023-03-19T22:12:42.187Z,8.07
2023-03-19T22:15:19.627Z,8.23
2023-03-19T22:17:50.007Z,8.53
2023-03-19T22:20:20.280Z,8.23
2023-03-19T22:22:48.642Z,7.07
2023-03-19T22:25:17.965Z,8.20
2023-03-19T22:27:48.066Z,7.53
2023-03-19T22:30:27.142Z,8.30
2023-03-19T22:32:58.019Z,7.33
2023-03-19T22:35:26.210Z,6.60
2023-03-19T22:37:54.082Z,8.67
2023-03-19T22:40:22.021Z,7.47
2023-03-19T22:42:50.663Z,7.47
2023-03-19T22:45:24.189Z,8.50
2023-03-19T22:47:52.650Z,7.70
2023-03-19T22:50:25.067Z,6.57
2023-03-19T22:52:53.387Z,6.53
2023-03-19T22:55:21.622Z,6.33
2023-03-19T22:57:50.009Z,6.80
2023-03-19T23:00:20.343Z,6.87
2023-03-19T23:02:54.703Z,6.10
2023-03-19T23:05:28.078Z,6.00
2023-03-19T23:07:56.329Z,6.87
2023-03-19T23:10:26.761Z,7.23
2023-03-19T23:12:55.127Z,5.33
2023-03-19T23:15:25.016Z,5.00
2023-03-19T23:17:56.967Z,6.50
2023-03-19T23:20:28.144Z,5.37
2023-03-19T23:22:56.561Z,5.97
2023-03-19T23:25:28.443Z,4.63
2023-03-19T23:27:59.852Z,4.87
2023-03-19T23:30:30.219Z,4.83
2023-03-19T23:32:59.956Z,5.10
2023-03-19T23:35:32.157Z,4.67
2023-03-19T23:38:01.827Z,5.20
2023-03-19T23:40:33.134Z,4.40
2023-03-19T23:43:02.500Z,4.53
2023-03-19T23:45:34.676Z,4.13
2023-03-19T23:48:04.871Z,3.90
2023-03-19T23:50:35.054Z,4.00
2023-03-19T23:53:02.866Z,4.13
2023-03-19T23:55:31.524Z,4.40
2023-03-19T23:57:59.621Z,3.90
